sensor_id;sensor_type;location;lat;lon;timestamp;temperature;humidity
18880;DHT22;9572;52.378;13.404;2022-12-29T00:00:09;8.20;99.90
18880;DHT22;9572;52.378;13.404;2022-12-29T00:02:36;8.20;99.90
18880;DHT22;9572;52.378;13.404;2022-12-29T00:05:04;8.30;99.90
18880;DHT22;9572;52.378;13.404;2022-12-29T00:07:32;8.30;99.90
18880;DHT22;9572;52.378;13.404;2022-12-29T00:09:59;8.30;99.90
18880;DHT22;9572;52.378;13.404;2022-12-29T00:12:26;8.30;99.90
18880;DHT22;9572;52.378;13.404;2022-12-29T00:15:13;8.30;99.90
18880;DHT22;9572;52.378;13.404;2022-12-29T00:17:57;8.30;99.90
18880;DHT22;9572;52.378;13.404;2022-12-29T00:20:24;8.40;99.90
18880;DHT22;9572;52.378;13.404;2022-12-29T00:23:10;8.40;99.90
18880;DHT22;9572;52.378;13.404;2022-12-29T00:25:55;8.30;99.90
18880;DHT22;9572;52.378;13.404;2022-12-29T00:28:39;8.40;99.90
18880;DHT22;9572;52.378;13.404;2022-12-29T00:31:24;8.50;99.90
18880;DHT22;9572;52.378;13.404;2022-12-29T00:34:10;8.50;99.90
18880;DHT22;9572;52.378;13.404;2022-12-29T00:36:55;8.50;99.90
18880;DHT22;9572;52.378;13.404;2022-12-29T00:39:23;8.50;99.90
18880;DHT22;9572;52.378;13.404;2022-12-29T00:42:09;8.50;99.90
18880;DHT22;9572;52.378;13.404;2022-12-29T00:44:58;8.50;99.90
18880;DHT22;9572;52.378;13.404;2022-12-29T00:47:25;8.50;99.90
18880;DHT22;9572;52.378;13.404;2022-12-29T00:49:52;8.50;99.90
18880;DHT22;9572;52.378;13.404;2022-12-29T00:52:18;8.50;99.90
18880;DHT22;9572;52.378;13.404;2022-12-29T00:54:46;8.50;99.90
18880;DHT22;9572;52.378;13.404;2022-12-29T00:57:13;8.50;99.90
18880;DHT22;9572;52.378;13.404;2022-12-29T00:59:41;8.50;99.90
18880;DHT22;9572;52.378;13.404;2022-12-29T01:02:09;8.60;99.90
18880;DHT22;9572;52.378;13.404;2022-12-29T01:04:37;8.50;99.90
18880;DHT22;9572;52.378;13.404;2022-12-29T01:07:04;8.60;99.90
18880;DHT22;9572;52.378;13.404;2022-12-29T01:09:32;8.60;99.90
18880;DHT22;9572;52.378;13.404;2022-12-29T01:12:18;8.60;99.90
18880;DHT22;9572;52.378;13.404;2022-12-29T01:15:06;8.50;99.90
18880;DHT22;9572;52.378;13.404;2022-12-29T01:17:34;8.60;99.90
18880;DHT22;9572;52.378;13.404;2022-12-29T01:20:01;8.50;99.90
18880;DHT22;9572;52.378;13.404;2022-12-29T01:22:28;8.50;99.90
18880;DHT22;9572;52.378;13.404;2022-12-29T01:24:55;8.60;99.90
18880;DHT22;9572;52.378;13.404;2022-12-29T01:27:23;8.60;99.90
18880;DHT22;9572;52.378;13.404;2022-12-29T01:29:50;8.60;99.90
18880;DHT22;9572;52.378;13.404;2022-12-29T01:32:17;8.60;99.90
18880;DHT22;9572;52.378;13.404;2022-12-29T01:34:44;8.60;99.90
18880;DHT22;9572;52.378;13.404;2022-12-29T01:37:11;8.60;99.90
18880;DHT22;9572;52.378;13.404;2022-12-29T01:39:38;8.50;99.90
18880;DHT22;9572;52.378;13.404;2022-12-29T01:42:05;8.50;99.90
18880;DHT22;9572;52.378;13.404;2022-12-29T01:44:51;8.60;99.90
18880;DHT22;9572;52.378;13.404;2022-12-29T01:47:32;8.60;99.90
18880;DHT22;9572;52.378;13.404;2022-12-29T01:50:06;8.50;99.90
18880;DHT22;9572;52.378;13.404;2022-12-29T01:52:38;8.50;99.90
18880;DHT22;9572;52.378;13.404;2022-12-29T01:55:07;8.50;99.90
18880;DHT22;9572;52.378;13.404;2022-12-29T01:57:38;8.50;99.90
18880;DHT22;9572;52.378;13.404;2022-12-29T02:00:11;8.50;99.90
18880;DHT22;9572;52.378;13.404;2022-12-29T02:02:39;8.50;99.90
18880;DHT22;9572;52.378;13.404;2022-12-29T02:05:11;8.50;99.90
18880;DHT22;9572;52.378;13.404;2022-12-29T02:07:41;8.50;99.90
18880;DHT22;9572;52.378;13.404;2022-12-29T02:10:08;8.50;99.90
18880;DHT22;9572;52.378;13.404;2022-12-29T02:12:35;8.50;99.90
18880;DHT22;9572;52.378;13.404;2022-12-29T02:15:03;8.50;99.90
18880;DHT22;9572;52.378;13.404;2022-12-29T02:17:59;8.60;99.90
18880;DHT22;9572;52.378;13.404;2022-12-29T02:20:56;8.70;99.90
18880;DHT22;9572;52.378;13.404;2022-12-29T02:23:50;8.60;99.90
18880;DHT22;9572;52.378;13.404;2022-12-29T02:26:34;8.60;99.90
18880;DHT22;9572;52.378;13.404;2022-12-29T02:29:42;8.70;99.90
18880;DHT22;9572;52.378;13.404;2022-12-29T02:32:21;8.70;99.90
18880;DHT22;9572;52.378;13.404;2022-12-29T02:34:59;8.70;99.90
18880;DHT22;9572;52.378;13.404;2022-12-29T02:37:38;8.70;99.90
18880;DHT22;9572;52.378;13.404;2022-12-29T02:40:16;8.60;99.90
18880;DHT22;9572;52.378;13.404;2022-12-29T02:42:49;8.70;99.90
18880;DHT22;9572;52.378;13.404;2022-12-29T02:45:21;8.70;99.90
18880;DHT22;9572;52.378;13.404;2022-12-29T02:47:55;8.70;99.90
18880;DHT22;9572;52.378;13.404;2022-12-29T02:50:26;8.70;99.90
18880;DHT22;9572;52.378;13.404;2022-12-29T02:52:59;8.60;99.90
18880;DHT22;9572;52.378;13.404;2022-12-29T02:55:27;8.70;99.90
18880;DHT22;9572;52.378;13.404;2022-12-29T02:58:13;8.70;99.90
18880;DHT22;9572;52.378;13.404;2022-12-29T03:00:48;8.80;99.90
18880;DHT22;9572;52.378;13.404;2022-12-29T03:03:25;8.80;99.90
18880;DHT22;9572;52.378;13.404;2022-12-29T03:06:14;8.80;99.90
18880;DHT22;9572;52.378;13.404;2022-12-29T03:08:53;8.80;99.90
18880;DHT22;9572;52.378;13.404;2022-12-29T03:11:23;8.80;99.90
18880;DHT22;9572;52.378;13.404;2022-12-29T03:14:17;8.70;99.90
18880;DHT22;9572;52.378;13.404;2022-12-29T03:17:08;8.70;99.90
18880;DHT22;9572;52.378;13.404;2022-12-29T03:19:41;8.80;99.90
18880;DHT22;9572;52.378;13.404;2022-12-29T03:22:14;8.90;99.90
18880;DHT22;9572;52.378;13.404;2022-12-29T03:24:59;8.80;99.90
18880;DHT22;9572;52.378;13.404;2022-12-29T03:27:29;8.80;99.90
18880;DHT22;9572;52.378;13.404;2022-12-29T03:29:59;8.80;99.90
18880;DHT22;9572;52.378;13.404;2022-12-29T03:32:31;8.90;99.90
18880;DHT22;9572;52.378;13.404;2022-12-29T03:35:00;8.90;99.90
18880;DHT22;9572;52.378;13.404;2022-12-29T03:37:30;9.00;99.90
18880;DHT22;9572;52.378;13.404;2022-12-29T03:40:00;9.00;99.90
18880;DHT22;9572;52.378;13.404;2022-12-29T03:42:29;9.10;99.90
18880;DHT22;9572;52.378;13.404;2022-12-29T03:44:57;9.00;99.90
18880;DHT22;9572;52.378;13.404;2022-12-29T03:47:25;9.00;99.90
18880;DHT22;9572;52.378;13.404;2022-12-29T03:49:52;9.00;99.90
18880;DHT22;9572;52.378;13.404;2022-12-29T03:52:20;8.90;99.90
18880;DHT22;9572;52.378;13.404;2022-12-29T03:54:47;9.00;99.90
18880;DHT22;9572;52.378;13.404;2022-12-29T03:57:14;9.00;99.90
18880;DHT22;9572;52.378;13.404;2022-12-29T03:59:41;9.10;99.90
18880;DHT22;9572;52.378;13.404;2022-12-29T04:02:08;9.10;99.90
18880;DHT22;9572;52.378;13.404;2022-12-29T04:04:34;9.10;99.90
18880;DHT22;9572;52.378;13.404;2022-12-29T04:07:01;9.10;99.90
18880;DHT22;9572;52.378;13.404;2022-12-29T04:09:29;9.20;99.90
18880;DHT22;9572;52.378;13.404;2022-12-29T04:11:56;9.20;99.90
18880;DHT22;9572;52.378;13.404;2022-12-29T04:14:23;9.20;99.90
18880;DHT22;9572;52.378;13.404;2022-12-29T04:16:50;9.20;99.90
18880;DHT22;9572;52.378;13.404;2022-12-29T04:19:17;9.20;99.90
18880;DHT22;9572;52.378;13.404;2022-12-29T04:21:44;9.20;99.90
18880;DHT22;9572;52.378;13.404;2022-12-29T04:24:11;9.10;99.90
18880;DHT22;9572;52.378;13.404;2022-12-29T04:26:40;9.20;99.90
18880;DHT22;9572;52.378;13.404;2022-12-29T04:29:07;9.20;99.90
18880;DHT22;9572;52.378;13.404;2022-12-29T04:31:34;9.30;99.90
18880;DHT22;9572;52.378;13.404;2022-12-29T04:34:01;9.20;99.90
18880;DHT22;9572;52.378;13.404;2022-12-29T04:36:28;9.30;99.90
18880;DHT22;9572;52.378;13.404;2022-12-29T04:38:55;9.30;99.90
18880;DHT22;9572;52.378;13.404;2022-12-29T04:41:21;9.30;99.90
18880;DHT22;9572;52.378;13.404;2022-12-29T04:43:50;9.30;99.90
18880;DHT22;9572;52.378;13.404;2022-12-29T04:46:17;9.30;99.90
18880;DHT22;9572;52.378;13.404;2022-12-29T04:48:44;9.30;99.90
18880;DHT22;9572;52.378;13.404;2022-12-29T04:51:11;9.30;99.90
18880;DHT22;9572;52.378;13.404;2022-12-29T04:53:38;9.40;99.90
18880;DHT22;9572;52.378;13.404;2022-12-29T04:56:06;9.30;99.90
18880;DHT22;9572;52.378;13.404;2022-12-29T04:58:33;9.30;99.90
18880;DHT22;9572;52.378;13.404;2022-12-29T05:01:01;9.20;99.90
18880;DHT22;9572;52.378;13.404;2022-12-29T05:03:28;9.20;99.90
18880;DHT22;9572;52.378;13.404;2022-12-29T05:05:55;9.30;99.90
18880;DHT22;9572;52.378;13.404;2022-12-29T05:08:22;9.30;99.90
18880;DHT22;9572;52.378;13.404;2022-12-29T05:10:50;9.40;99.90
18880;DHT22;9572;52.378;13.404;2022-12-29T05:13:17;9.30;99.90
18880;DHT22;9572;52.378;13.404;2022-12-29T05:15:47;9.40;99.90
18880;DHT22;9572;52.378;13.404;2022-12-29T05:18:17;9.40;99.90
18880;DHT22;9572;52.378;13.404;2022-12-29T05:20:44;9.40;99.90
18880;DHT22;9572;52.378;13.404;2022-12-29T05:23:11;9.50;99.90
18880;DHT22;9572;52.378;13.404;2022-12-29T05:25:38;9.50;99.90
18880;DHT22;9572;52.378;13.404;2022-12-29T05:28:05;9.50;99.90
18880;DHT22;9572;52.378;13.404;2022-12-29T05:30:32;9.40;99.90
18880;DHT22;9572;52.378;13.404;2022-12-29T05:32:59;9.40;99.90
18880;DHT22;9572;52.378;13.404;2022-12-29T05:35:27;9.40;99.90
18880;DHT22;9572;52.378;13.404;2022-12-29T05:37:54;9.50;99.90
18880;DHT22;9572;52.378;13.404;2022-12-29T05:40:21;9.50;99.90
18880;DHT22;9572;52.378;13.404;2022-12-29T05:42:48;9.60;99.90
18880;DHT22;9572;52.378;13.404;2022-12-29T05:45:15;9.60;99.90
18880;DHT22;9572;52.378;13.404;2022-12-29T05:47:42;9.60;99.90
18880;DHT22;9572;52.378;13.404;2022-12-29T05:50:09;9.70;99.90
18880;DHT22;9572;52.378;13.404;2022-12-29T05:52:37;9.70;99.90
18880;DHT22;9572;52.378;13.404;2022-12-29T05:55:04;9.70;99.90
18880;DHT22;9572;52.378;13.404;2022-12-29T05:57:31;9.80;99.90
18880;DHT22;9572;52.378;13.404;2022-12-29T05:59:58;9.80;99.90
18880;DHT22;9572;52.378;13.404;2022-12-29T06:02:25;9.70;99.90
18880;DHT22;9572;52.378;13.404;2022-12-29T06:04:52;9.70;99.90
18880;DHT22;9572;52.378;13.404;2022-12-29T06:07:19;9.70;99.90
18880;DHT22;9572;52.378;13.404;2022-12-29T06:09:47;9.80;99.90
18880;DHT22;9572;52.378;13.404;2022-12-29T06:12:14;9.80;99.90
18880;DHT22;9572;52.378;13.404;2022-12-29T06:14:41;9.80;99.90
18880;DHT22;9572;52.378;13.404;2022-12-29T06:17:08;9.90;99.90
18880;DHT22;9572;52.378;13.404;2022-12-29T06:19:35;9.90;99.90
18880;DHT22;9572;52.378;13.404;2022-12-29T06:22:02;9.90;99.90
18880;DHT22;9572;52.378;13.404;2022-12-29T06:24:29;9.80;99.90
18880;DHT22;9572;52.378;13.404;2022-12-29T06:26:57;9.80;99.90
18880;DHT22;9572;52.378;13.404;2022-12-29T06:29:24;9.90;99.90
18880;DHT22;9572;52.378;13.404;2022-12-29T06:31:51;9.90;99.90
18880;DHT22;9572;52.378;13.404;2022-12-29T06:34:21;9.80;99.90
18880;DHT22;9572;52.378;13.404;2022-12-29T06:36:48;9.80;99.90
18880;DHT22;9572;52.378;13.404;2022-12-29T06:39:15;9.90;99.90
18880;DHT22;9572;52.378;13.404;2022-12-29T06:41:42;9.90;99.90
18880;DHT22;9572;52.378;13.404;2022-12-29T06:44:10;9.90;99.90
18880;DHT22;9572;52.378;13.404;2022-12-29T06:46:37;9.90;99.90
18880;DHT22;9572;52.378;13.404;2022-12-29T06:49:04;9.90;99.90
18880;DHT22;9572;52.378;13.404;2022-12-29T06:51:31;9.90;99.90
18880;DHT22;9572;52.378;13.404;2022-12-29T06:53:57;9.80;99.90
18880;DHT22;9572;52.378;13.404;2022-12-29T06:56:24;9.80;99.90
18880;DHT22;9572;52.378;13.404;2022-12-29T06:58:51;9.90;99.90
18880;DHT22;9572;52.378;13.404;2022-12-29T07:01:19;9.90;99.90
18880;DHT22;9572;52.378;13.404;2022-12-29T07:03:46;9.90;99.90
18880;DHT22;9572;52.378;13.404;2022-12-29T07:06:13;9.80;99.90
18880;DHT22;9572;52.378;13.404;2022-12-29T07:08:40;9.80;99.90
18880;DHT22;9572;52.378;13.404;2022-12-29T07:11:07;9.70;99.90
18880;DHT22;9572;52.378;13.404;2022-12-29T07:13:34;9.80;99.90
18880;DHT22;9572;52.378;13.404;2022-12-29T07:16:05;9.90;99.90
18880;DHT22;9572;52.378;13.404;2022-12-29T07:18:34;9.90;99.90
18880;DHT22;9572;52.378;13.404;2022-12-29T07:21:01;10.00;99.90
18880;DHT22;9572;52.378;13.404;2022-12-29T07:23:28;9.90;99.90
18880;DHT22;9572;52.378;13.404;2022-12-29T07:25:59;9.90;99.90
18880;DHT22;9572;52.378;13.404;2022-12-29T07:28:26;9.90;99.90
18880;DHT22;9572;52.378;13.404;2022-12-29T07:30:53;10.00;99.90
18880;DHT22;9572;52.378;13.404;2022-12-29T07:33:20;9.90;99.90
18880;DHT22;9572;52.378;13.404;2022-12-29T07:35:48;9.80;99.90
18880;DHT22;9572;52.378;13.404;2022-12-29T07:38:15;9.80;99.90
18880;DHT22;9572;52.378;13.404;2022-12-29T07:40:42;9.80;99.90
18880;DHT22;9572;52.378;13.404;2022-12-29T07:43:09;9.90;99.90
18880;DHT22;9572;52.378;13.404;2022-12-29T07:45:36;9.90;99.90
18880;DHT22;9572;52.378;13.404;2022-12-29T07:48:04;9.90;99.90
18880;DHT22;9572;52.378;13.404;2022-12-29T07:50:33;9.90;99.90
18880;DHT22;9572;52.378;13.404;2022-12-29T07:53:01;10.00;99.90
18880;DHT22;9572;52.378;13.404;2022-12-29T07:55:28;9.90;99.90
18880;DHT22;9572;52.378;13.404;2022-12-29T07:57:55;9.90;99.90
18880;DHT22;9572;52.378;13.404;2022-12-29T08:00:23;10.00;99.90
18880;DHT22;9572;52.378;13.404;2022-12-29T08:02:49;10.00;99.90
18880;DHT22;9572;52.378;13.404;2022-12-29T08:05:16;10.00;99.90
18880;DHT22;9572;52.378;13.404;2022-12-29T08:07:44;10.10;99.90
18880;DHT22;9572;52.378;13.404;2022-12-29T08:10:14;10.10;99.90
18880;DHT22;9572;52.378;13.404;2022-12-29T08:12:41;10.20;99.90
18880;DHT22;9572;52.378;13.404;2022-12-29T08:15:09;10.20;99.90
18880;DHT22;9572;52.378;13.404;2022-12-29T08:17:37;10.20;99.90
18880;DHT22;9572;52.378;13.404;2022-12-29T08:20:04;10.30;99.90
18880;DHT22;9572;52.378;13.404;2022-12-29T08:22:31;10.30;99.90
18880;DHT22;9572;52.378;13.404;2022-12-29T08:24:58;10.30;99.90
18880;DHT22;9572;52.378;13.404;2022-12-29T08:27:26;10.40;99.90
18880;DHT22;9572;52.378;13.404;2022-12-29T08:29:53;10.40;99.90
18880;DHT22;9572;52.378;13.404;2022-12-29T08:32:20;10.40;99.90
18880;DHT22;9572;52.378;13.404;2022-12-29T08:34:47;10.40;99.90
18880;DHT22;9572;52.378;13.404;2022-12-29T08:37:14;10.40;99.90
18880;DHT22;9572;52.378;13.404;2022-12-29T08:39:41;10.40;99.90
18880;DHT22;9572;52.378;13.404;2022-12-29T08:42:07;10.40;99.90
18880;DHT22;9572;52.378;13.404;2022-12-29T08:44:36;10.50;99.90
18880;DHT22;9572;52.378;13.404;2022-12-29T08:47:03;10.50;99.90
18880;DHT22;9572;52.378;13.404;2022-12-29T08:49:30;10.40;99.90
18880;DHT22;9572;52.378;13.404;2022-12-29T08:51:58;10.40;99.90
18880;DHT22;9572;52.378;13.404;2022-12-29T08:54:25;10.40;99.90
18880;DHT22;9572;52.378;13.404;2022-12-29T08:56:52;10.30;99.90
18880;DHT22;9572;52.378;13.404;2022-12-29T08:59:19;10.40;99.90
18880;DHT22;9572;52.378;13.404;2022-12-29T09:01:47;10.40;99.90
18880;DHT22;9572;52.378;13.404;2022-12-29T09:04:14;10.40;99.90
18880;DHT22;9572;52.378;13.404;2022-12-29T09:06:41;10.50;99.90
18880;DHT22;9572;52.378;13.404;2022-12-29T09:09:08;10.50;99.90
18880;DHT22;9572;52.378;13.404;2022-12-29T09:11:35;10.50;99.90
18880;DHT22;9572;52.378;13.404;2022-12-29T09:14:02;10.50;99.90
18880;DHT22;9572;52.378;13.404;2022-12-29T09:16:29;10.60;99.90
18880;DHT22;9572;52.378;13.404;2022-12-29T09:18:57;10.60;99.90
18880;DHT22;9572;52.378;13.404;2022-12-29T09:21:24;10.70;99.90
18880;DHT22;9572;52.378;13.404;2022-12-29T09:23:51;10.70;99.90
18880;DHT22;9572;52.378;13.404;2022-12-29T09:26:18;10.70;99.90
18880;DHT22;9572;52.378;13.404;2022-12-29T09:28:45;10.60;99.90
18880;DHT22;9572;52.378;13.404;2022-12-29T09:31:12;10.70;99.90
18880;DHT22;9572;52.378;13.404;2022-12-29T09:33:39;10.80;99.90
18880;DHT22;9572;52.378;13.404;2022-12-29T09:36:08;10.90;99.90
18880;DHT22;9572;52.378;13.404;2022-12-29T09:38:35;10.90;99.90
18880;DHT22;9572;52.378;13.404;2022-12-29T09:41:06;11.00;99.90
18880;DHT22;9572;52.378;13.404;2022-12-29T09:43:58;11.00;99.90
18880;DHT22;9572;52.378;13.404;2022-12-29T09:46:27;11.10;99.90
18880;DHT22;9572;52.378;13.404;2022-12-29T09:49:04;11.10;99.90
18880;DHT22;9572;52.378;13.404;2022-12-29T09:51:36;11.10;99.90
18880;DHT22;9572;52.378;13.404;2022-12-29T09:54:21;11.30;99.90
18880;DHT22;9572;52.378;13.404;2022-12-29T09:56:50;11.30;99.90
18880;DHT22;9572;52.378;13.404;2022-12-29T09:59:20;11.40;99.90
18880;DHT22;9572;52.378;13.404;2022-12-29T10:01:53;11.50;99.90
18880;DHT22;9572;52.378;13.404;2022-12-29T10:04:21;11.60;99.90
18880;DHT22;9572;52.378;13.404;2022-12-29T10:06:54;11.70;99.90
18880;DHT22;9572;52.378;13.404;2022-12-29T10:09:26;11.90;99.90
18880;DHT22;9572;52.378;13.404;2022-12-29T10:12:06;12.00;99.90
18880;DHT22;9572;52.378;13.404;2022-12-29T10:14:52;12.00;99.90
18880;DHT22;9572;52.378;13.404;2022-12-29T10:17:32;12.10;99.90
18880;DHT22;9572;52.378;13.404;2022-12-29T10:20:16;12.20;99.90
18880;DHT22;9572;52.378;13.404;2022-12-29T10:22:57;12.20;99.90
18880;DHT22;9572;52.378;13.404;2022-12-29T10:25:30;12.30;99.90
18880;DHT22;9572;52.378;13.404;2022-12-29T10:28:01;12.30;99.90
18880;DHT22;9572;52.378;13.404;2022-12-29T10:30:29;12.30;99.90
18880;DHT22;9572;52.378;13.404;2022-12-29T10:32:58;12.30;99.90
18880;DHT22;9572;52.378;13.404;2022-12-29T10:35:30;12.30;99.90
18880;DHT22;9572;52.378;13.404;2022-12-29T10:38:05;12.30;99.90
18880;DHT22;9572;52.378;13.404;2022-12-29T10:40:41;12.30;99.90
18880;DHT22;9572;52.378;13.404;2022-12-29T10:43:18;12.30;99.90
18880;DHT22;9572;52.378;13.404;2022-12-29T10:45:48;12.30;99.90
18880;DHT22;9572;52.378;13.404;2022-12-29T10:48:20;12.30;99.90
18880;DHT22;9572;52.378;13.404;2022-12-29T10:50:48;12.40;99.90
18880;DHT22;9572;52.378;13.404;2022-12-29T10:53:20;12.50;99.90
18880;DHT22;9572;52.378;13.404;2022-12-29T10:55:49;12.60;99.90
18880;DHT22;9572;52.378;13.404;2022-12-29T10:58:17;12.60;99.90
18880;DHT22;9572;52.378;13.404;2022-12-29T11:00:49;12.60;99.90
18880;DHT22;9572;52.378;13.404;2022-12-29T11:03:39;12.70;99.90
18880;DHT22;9572;52.378;13.404;2022-12-29T11:06:10;12.70;99.90
18880;DHT22;9572;52.378;13.404;2022-12-29T11:08:52;12.70;99.90
18880;DHT22;9572;52.378;13.404;2022-12-29T11:11:24;12.70;99.90
18880;DHT22;9572;52.378;13.404;2022-12-29T11:13:56;12.70;99.90
18880;DHT22;9572;52.378;13.404;2022-12-29T11:16:28;12.70;99.90
18880;DHT22;9572;52.378;13.404;2022-12-29T11:18:57;12.60;99.90
18880;DHT22;9572;52.378;13.404;2022-12-29T11:21:29;12.60;99.90
18880;DHT22;9572;52.378;13.404;2022-12-29T11:23:59;12.50;99.90
18880;DHT22;9572;52.378;13.404;2022-12-29T11:26:27;12.30;99.90
18880;DHT22;9572;52.378;13.404;2022-12-29T11:29:23;12.10;99.90
18880;DHT22;9572;52.378;13.404;2022-12-29T11:31:52;11.90;99.90
18880;DHT22;9572;52.378;13.404;2022-12-29T11:34:22;11.80;99.90
18880;DHT22;9572;52.378;13.404;2022-12-29T11:36:51;11.70;99.90
18880;DHT22;9572;52.378;13.404;2022-12-29T11:39:36;11.50;99.90
18880;DHT22;9572;52.378;13.404;2022-12-29T11:42:06;11.40;99.90
18880;DHT22;9572;52.378;13.404;2022-12-29T11:44:42;11.30;99.90
18880;DHT22;9572;52.378;13.404;2022-12-29T11:47:13;11.10;99.90
18880;DHT22;9572;52.378;13.404;2022-12-29T11:49:49;11.00;99.90
18880;DHT22;9572;52.378;13.404;2022-12-29T11:52:21;10.90;99.90
18880;DHT22;9572;52.378;13.404;2022-12-29T11:54:51;10.90;99.90
18880;DHT22;9572;52.378;13.404;2022-12-29T11:57:19;10.90;99.90
18880;DHT22;9572;52.378;13.404;2022-12-29T11:59:52;10.90;99.90
18880;DHT22;9572;52.378;13.404;2022-12-29T12:02:28;10.80;99.90
18880;DHT22;9572;52.378;13.404;2022-12-29T12:05:04;10.70;99.90
18880;DHT22;9572;52.378;13.404;2022-12-29T12:07:39;10.70;99.90
18880;DHT22;9572;52.378;13.404;2022-12-29T12:10:13;10.70;99.90
18880;DHT22;9572;52.378;13.404;2022-12-29T12:12:47;10.70;99.90
18880;DHT22;9572;52.378;13.404;2022-12-29T12:15:19;10.60;99.90
18880;DHT22;9572;52.378;13.404;2022-12-29T12:17:51;10.60;99.90
18880;DHT22;9572;52.378;13.404;2022-12-29T12:20:22;10.60;99.90
18880;DHT22;9572;52.378;13.404;2022-12-29T12:22:59;10.50;99.90
18880;DHT22;9572;52.378;13.404;2022-12-29T12:25:34;10.30;99.90
18880;DHT22;9572;52.378;13.404;2022-12-29T12:28:10;10.20;99.90
18880;DHT22;9572;52.378;13.404;2022-12-29T12:30:40;10.10;99.90
18880;DHT22;9572;52.378;13.404;2022-12-29T12:33:16;10.00;99.90
18880;DHT22;9572;52.378;13.404;2022-12-29T12:35:54;10.00;99.90
18880;DHT22;9572;52.378;13.404;2022-12-29T12:38:28;10.00;99.90
18880;DHT22;9572;52.378;13.404;2022-12-29T12:41:06;10.10;99.90
18880;DHT22;9572;52.378;13.404;2022-12-29T12:43:40;10.10;99.90
18880;DHT22;9572;52.378;13.404;2022-12-29T12:46:27;10.10;99.90
18880;DHT22;9572;52.378;13.404;2022-12-29T12:49:30;10.10;99.90
18880;DHT22;9572;52.378;13.404;2022-12-29T12:52:08;10.10;99.90
18880;DHT22;9572;52.378;13.404;2022-12-29T12:55:00;10.20;99.90
18880;DHT22;9572;52.378;13.404;2022-12-29T12:57:44;10.20;99.90
18880;DHT22;9572;52.378;13.404;2022-12-29T13:00:14;10.30;99.90
18880;DHT22;9572;52.378;13.404;2022-12-29T13:02:54;10.30;99.90
18880;DHT22;9572;52.378;13.404;2022-12-29T13:05:39;10.40;99.90
18880;DHT22;9572;52.378;13.404;2022-12-29T13:08:35;10.40;99.90
18880;DHT22;9572;52.378;13.404;2022-12-29T13:11:13;10.50;99.90
18880;DHT22;9572;52.378;13.404;2022-12-29T13:16:41;10.40;99.90
18880;DHT22;9572;52.378;13.404;2022-12-29T13:19:15;10.50;99.90
18880;DHT22;9572;52.378;13.404;2022-12-29T13:21:55;10.50;99.90
18880;DHT22;9572;52.378;13.404;2022-12-29T13:24:28;10.50;99.90
18880;DHT22;9572;52.378;13.404;2022-12-29T13:27:02;10.60;99.90
18880;DHT22;9572;52.378;13.404;2022-12-29T13:29:35;10.50;99.90
18880;DHT22;9572;52.378;13.404;2022-12-29T13:32:18;10.60;99.90
18880;DHT22;9572;52.378;13.404;2022-12-29T13:35:00;10.60;99.90
18880;DHT22;9572;52.378;13.404;2022-12-29T13:37:32;10.50;99.90
18880;DHT22;9572;52.378;13.404;2022-12-29T13:40:03;10.50;99.90
18880;DHT22;9572;52.378;13.404;2022-12-29T13:42:31;10.40;99.90
18880;DHT22;9572;52.378;13.404;2022-12-29T13:45:02;10.30;99.90
18880;DHT22;9572;52.378;13.404;2022-12-29T13:47:34;10.30;99.90
18880;DHT22;9572;52.378;13.404;2022-12-29T13:50:04;10.30;99.90
18880;DHT22;9572;52.378;13.404;2022-12-29T13:52:37;10.20;99.90
18880;DHT22;9572;52.378;13.404;2022-12-29T13:55:21;10.10;99.90
18880;DHT22;9572;52.378;13.404;2022-12-29T13:57:55;10.10;99.90
18880;DHT22;9572;52.378;13.404;2022-12-29T14:00:31;10.20;99.90
18880;DHT22;9572;52.378;13.404;2022-12-29T14:03:16;10.30;99.90
18880;DHT22;9572;52.378;13.404;2022-12-29T14:06:03;10.30;99.90
18880;DHT22;9572;52.378;13.404;2022-12-29T14:08:33;10.30;99.90
18880;DHT22;9572;52.378;13.404;2022-12-29T14:11:05;10.20;99.90
18880;DHT22;9572;52.378;13.404;2022-12-29T14:13:38;10.20;99.90
18880;DHT22;9572;52.378;13.404;2022-12-29T14:16:09;10.30;99.90
18880;DHT22;9572;52.378;13.404;2022-12-29T14:18:43;10.30;99.90
18880;DHT22;9572;52.378;13.404;2022-12-29T14:21:18;10.30;99.90
18880;DHT22;9572;52.378;13.404;2022-12-29T14:23:50;10.40;99.90
18880;DHT22;9572;52.378;13.404;2022-12-29T14:26:34;10.40;99.90
18880;DHT22;9572;52.378;13.404;2022-12-29T14:32:36;10.50;99.90
18880;DHT22;9572;52.378;13.404;2022-12-29T14:35:38;10.60;99.90
18880;DHT22;9572;52.378;13.404;2022-12-29T14:38:07;10.60;99.90
18880;DHT22;9572;52.378;13.404;2022-12-29T14:40:40;10.60;99.90
18880;DHT22;9572;52.378;13.404;2022-12-29T14:43:12;10.60;99.90
18880;DHT22;9572;52.378;13.404;2022-12-29T14:45:42;10.60;99.90
18880;DHT22;9572;52.378;13.404;2022-12-29T14:48:39;10.60;99.90
18880;DHT22;9572;52.378;13.404;2022-12-29T14:51:31;10.60;99.90
18880;DHT22;9572;52.378;13.404;2022-12-29T14:53:58;10.60;99.90
18880;DHT22;9572;52.378;13.404;2022-12-29T14:56:27;10.60;99.90
18880;DHT22;9572;52.378;13.404;2022-12-29T14:58:58;10.60;99.90
18880;DHT22;9572;52.378;13.404;2022-12-29T15:01:36;10.60;99.90
18880;DHT22;9572;52.378;13.404;2022-12-29T15:04:13;10.60;99.90
18880;DHT22;9572;52.378;13.404;2022-12-29T15:06:42;10.50;99.90
18880;DHT22;9572;52.378;13.404;2022-12-29T15:09:22;10.60;99.90
18880;DHT22;9572;52.378;13.404;2022-12-29T15:11:53;10.50;99.90
18880;DHT22;9572;52.378;13.404;2022-12-29T15:14:32;10.60;99.90
18880;DHT22;9572;52.378;13.404;2022-12-29T15:16:59;10.60;99.90
18880;DHT22;9572;52.378;13.404;2022-12-29T15:19:28;10.60;99.90
18880;DHT22;9572;52.378;13.404;2022-12-29T15:21:55;10.70;99.90
18880;DHT22;9572;52.378;13.404;2022-12-29T15:24:23;10.70;99.90
18880;DHT22;9572;52.378;13.404;2022-12-29T15:26:52;10.70;99.90
18880;DHT22;9572;52.378;13.404;2022-12-29T15:29:31;10.70;99.90
18880;DHT22;9572;52.378;13.404;2022-12-29T15:31:59;10.70;99.90
18880;DHT22;9572;52.378;13.404;2022-12-29T15:34:31;10.80;99.90
18880;DHT22;9572;52.378;13.404;2022-12-29T15:36:57;10.80;99.90
18880;DHT22;9572;52.378;13.404;2022-12-29T15:39:29;10.70;99.90
18880;DHT22;9572;52.378;13.404;2022-12-29T15:41:56;10.70;99.90
18880;DHT22;9572;52.378;13.404;2022-12-29T15:44:29;10.60;99.90
18880;DHT22;9572;52.378;13.404;2022-12-29T15:47:02;10.70;99.90
18880;DHT22;9572;52.378;13.404;2022-12-29T15:49:31;10.60;99.90
18880;DHT22;9572;52.378;13.404;2022-12-29T15:51:58;10.60;99.90
18880;DHT22;9572;52.378;13.404;2022-12-29T15:54:27;10.60;99.90
18880;DHT22;9572;52.378;13.404;2022-12-29T15:56:56;10.60;99.90
18880;DHT22;9572;52.378;13.404;2022-12-29T15:59:25;10.60;99.90
18880;DHT22;9572;52.378;13.404;2022-12-29T16:01:54;10.60;99.90
18880;DHT22;9572;52.378;13.404;2022-12-29T16:04:21;10.70;99.90
18880;DHT22;9572;52.378;13.404;2022-12-29T16:06:57;10.70;99.90
18880;DHT22;9572;52.378;13.404;2022-12-29T16:09:31;10.70;99.90
18880;DHT22;9572;52.378;13.404;2022-12-29T16:12:01;10.60;99.90